WXM80 ListenWXM80 Stop

You find our weather info also at:

UK Metoffice

WeatherCloud

Weather Underground

Northeastern Weather Network

AWEKAS

Citizen Weather Observer Program (CWOP)

HAMweather, WeatherForYou, PWS Weather


Weather Underground History page Text

Daily Summary for May 20, 2017 Units:  Both    English   Metric
« Previous Day
Next Day »
Daily Weekly Monthly Yearly Custom
  High: Low: Average:
Temperature: 65.8 °F /  18.8 °C 52.1 °F /  11.2 °C 60.6 °F /  15.9 °C
Dew Point: 56.6 °F /  13.7 °C 42.5 °F /  5.8 °C 49.2 °F /  9.6 °C
Humidity: 81 % 44 % 67 %
Wind Speed: 9.6 mph /  15.4 km/h - 3 mph /  4.8 km/h
Wind Gust: 15.0 mph /  24.1 km/h - -
Wind:- - ESE
Pressure: 30.31 in /  1026.3 hPa 30.01 in /  1016.1 hPa -
Precipitation: 0.01 in /  0.25 mm    
Historical Graphs
 
 
Tabular Data for May 20, 2017
Time Temperature Dew Point Pressure Wind Wind Speed Wind Gust Humidity Rainfall Rate (Hourly)
00:01 64.5 °F /  18.1 °C 56.0 °F /  13.3 °C 30.02 in /  1016.5 hPa North 3.7 mph /  6 km/h 6.9 mph /  11.1 km/h 74 % 0.00 in /  0 mm
00:06 64.3 °F /  17.9 °C 56.6 °F /  13.7 °C 30.02 in /  1016.5 hPa North 4.1 mph /  6.6 km/h 8.1 mph /  13 km/h 76 % 0.00 in /  0 mm
00:11 64.0 °F /  17.8 °C 55.9 °F /  13.3 °C 30.02 in /  1016.5 hPa NNE 5.4 mph /  8.7 km/h 9.0 mph /  14.5 km/h 75 % 0.00 in /  0 mm
00:16 63.6 °F /  17.6 °C 55.9 °F /  13.3 °C 30.01 in /  1016.1 hPa NNE 5.9 mph /  9.5 km/h 8.0 mph /  12.9 km/h 76 % 0.00 in /  0 mm
00:21 63.4 °F /  17.4 °C 55.7 °F /  13.2 °C 30.02 in /  1016.5 hPa NNE 6.7 mph /  10.8 km/h 11.5 mph /  18.5 km/h 76 % 0.00 in /  0 mm
00:26 63.2 °F /  17.3 °C 55.9 °F /  13.3 °C 30.02 in /  1016.5 hPa NNE 6.4 mph /  10.3 km/h 10.4 mph /  16.7 km/h 77 % 0.00 in /  0 mm
00:31 63.0 °F /  17.2 °C 55.7 °F /  13.2 °C 30.02 in /  1016.5 hPa NNE 5.9 mph /  9.5 km/h 11.5 mph /  18.5 km/h 77 % 0.00 in /  0 mm
00:34 62.9 °F /  17.2 °C 55.9 °F /  13.3 °C 30.02 in /  1016.5 hPa North 7.4 mph /  11.9 km/h 12.0 mph /  19.3 km/h 78 % 0.00 in /  0 mm
00:39 62.8 °F /  17.1 °C 55.5 °F /  13.1 °C 30.02 in /  1016.5 hPa NNE 5.8 mph /  9.3 km/h 10.4 mph /  16.7 km/h 77 % 0.00 in /  0 mm
00:44 62.8 °F /  17.1 °C 55.8 °F /  13.2 °C 30.02 in /  1016.5 hPa NNE 8.9 mph /  14.3 km/h 13.8 mph /  22.2 km/h 78 % 0.00 in /  0 mm
00:49 62.8 °F /  17.1 °C 55.5 °F /  13.1 °C 30.03 in /  1016.8 hPa NNE 6.3 mph /  10.1 km/h 12.7 mph /  20.4 km/h 77 % 0.00 in /  0 mm
00:54 62.8 °F /  17.1 °C 55.5 °F /  13.1 °C 30.03 in /  1016.8 hPa NNE 6.4 mph /  10.3 km/h 11.5 mph /  18.5 km/h 77 % 0.00 in /  0 mm
00:59 62.7 °F /  17.1 °C 55.7 °F /  13.2 °C 30.02 in /  1016.5 hPa North 7.8 mph /  12.6 km/h 11.5 mph /  18.5 km/h 78 % 0.00 in /  0 mm
01:04 62.6 °F /  17 °C 55.3 °F /  12.9 °C 30.02 in /  1016.5 hPa North 7.1 mph /  11.4 km/h 11.5 mph /  18.5 km/h 77 % 0.00 in /  0 mm
01:09 62.6 °F /  17 °C 55.6 °F /  13.1 °C 30.02 in /  1016.5 hPa NNE 7.9 mph /  12.7 km/h 11.5 mph /  18.5 km/h 78 % 0.00 in /  0 mm
01:14 62.5 °F /  16.9 °C 55.5 °F /  13.1 °C 30.02 in /  1016.5 hPa NE 6.4 mph /  10.3 km/h 11.5 mph /  18.5 km/h 78 % 0.00 in /  0 mm
01:19 62.4 °F /  16.9 °C 55.4 °F /  13 °C 30.03 in /  1016.8 hPa North 6.4 mph /  10.3 km/h 8.1 mph /  13 km/h 78 % 0.00 in /  0 mm
01:25 62.3 °F /  16.8 °C 55.4 °F /  13 °C 30.03 in /  1016.8 hPa North 7.3 mph /  11.7 km/h 9.2 mph /  14.8 km/h 78 % 0.00 in /  0 mm
01:30 62.2 °F /  16.8 °C 55.3 °F /  12.9 °C 30.03 in /  1016.8 hPa North 5.6 mph /  9 km/h 10.4 mph /  16.7 km/h 78 % 0.00 in /  0 mm
01:35 62.0 °F /  16.7 °C 55.1 °F /  12.8 °C 30.03 in /  1016.8 hPa NNE 6.8 mph /  10.9 km/h 9.2 mph /  14.8 km/h 78 % 0.00 in /  0 mm
01:40 61.9 °F /  16.6 °C 55.3 °F /  12.9 °C 30.03 in /  1016.8 hPa NNE 9.0 mph /  14.5 km/h 12.7 mph /  20.4 km/h 79 % 0.00 in /  0 mm
01:45 61.8 °F /  16.6 °C 55.2 °F /  12.9 °C 30.04 in /  1017.2 hPa NNE 6.3 mph /  10.1 km/h 11.5 mph /  18.5 km/h 79 % 0.00 in /  0 mm
01:50 61.7 °F /  16.5 °C 55.5 °F /  13.1 °C 30.04 in /  1017.2 hPa NNE 6.8 mph /  10.9 km/h 10.4 mph /  16.7 km/h 80 % 0.00 in /  0 mm
01:55 61.6 °F /  16.4 °C 55.0 °F /  12.8 °C 30.04 in /  1017.2 hPa NNE 3.8 mph /  6.1 km/h 8.1 mph /  13 km/h 79 % 0.00 in /  0 mm
02:00 61.5 °F /  16.4 °C 55.3 °F /  12.9 °C 30.04 in /  1017.2 hPa NNE 6.1 mph /  9.8 km/h 8.1 mph /  13 km/h 80 % 0.00 in /  0 mm
02:05 61.4 °F /  16.3 °C 55.2 °F /  12.9 °C 30.04 in /  1017.2 hPa NE 4.5 mph /  7.2 km/h 8.1 mph /  13 km/h 80 % 0.00 in /  0 mm
02:08 61.4 °F /  16.3 °C 55.2 °F /  12.9 °C 30.04 in /  1017.2 hPa North 5.9 mph /  9.5 km/h 9.2 mph /  14.8 km/h 80 % 0.00 in /  0 mm
02:13 61.3 °F /  16.3 °C 55.1 °F /  12.8 °C 30.04 in /  1017.2 hPa North 6.1 mph /  9.8 km/h 10.4 mph /  16.7 km/h 80 % 0.00 in /  0 mm
02:15 61.3 °F /  16.3 °C 55.1 °F /  12.8 °C 30.04 in /  1017.2 hPa NNE 5.2 mph /  8.4 km/h 8.1 mph /  13 km/h 80 % 0.00 in /  0 mm
02:20 61.2 °F /  16.2 °C 55.0 °F /  12.8 °C 30.04 in /  1017.2 hPa North 6.3 mph /  10.1 km/h 11.5 mph /  18.5 km/h 80 % 0.00 in /  0 mm
02:21 61.1 °F /  16.2 °C 54.9 °F /  12.7 °C 30.04 in /  1017.2 hPa North 6.1 mph /  9.8 km/h 11.5 mph /  18.5 km/h 80 % 0.00 in /  0 mm
02:26 61.0 °F /  16.1 °C 54.8 °F /  12.7 °C 30.04 in /  1017.2 hPa North 3.9 mph /  6.3 km/h 9.2 mph /  14.8 km/h 80 % 0.00 in /  0 mm
02:31 60.9 °F /  16.1 °C 54.7 °F /  12.6 °C 30.05 in /  1017.5 hPa North 5.7 mph /  9.2 km/h 9.2 mph /  14.8 km/h 80 % 0.00 in /  0 mm
02:36 60.8 °F /  16 °C 54.6 °F /  12.6 °C 30.05 in /  1017.5 hPa NNW 6.3 mph /  10.1 km/h 10.4 mph /  16.7 km/h 80 % 0.00 in /  0 mm
02:41 60.7 °F /  15.9 °C 54.5 °F /  12.5 °C 30.06 in /  1017.8 hPa NNE 6.8 mph /  10.9 km/h 10.4 mph /  16.7 km/h 80 % 0.00 in /  0 mm
02:46 60.6 °F /  15.9 °C 54.7 °F /  12.6 °C 30.06 in /  1017.8 hPa ENE 1.7 mph /  2.7 km/h 3.5 mph /  5.6 km/h 81 % 0.00 in /  0 mm
02:51 60.6 °F /  15.9 °C 54.7 °F /  12.6 °C 30.06 in /  1017.8 hPa NE 3.9 mph /  6.3 km/h 5.8 mph /  9.3 km/h 81 % 0.00 in /  0 mm
02:56 60.6 °F /  15.9 °C 54.4 °F /  12.4 °C 30.06 in /  1017.8 hPa ENE 6.1 mph /  9.8 km/h 13.8 mph /  22.2 km/h 80 % 0.00 in /  0 mm
03:01 60.5 °F /  15.8 °C 54.0 °F /  12.2 °C 30.07 in /  1018.2 hPa NE 4.0 mph /  6.4 km/h 9.2 mph /  14.8 km/h 79 % 0.00 in /  0 mm
03:06 60.5 °F /  15.8 °C 54.0 °F /  12.2 °C 30.07 in /  1018.2 hPa NE 7.3 mph /  11.7 km/h 11.5 mph /  18.5 km/h 79 % 0.00 in /  0 mm
03:11 60.4 °F /  15.8 °C 53.5 °F /  11.9 °C 30.07 in /  1018.2 hPa ENE 9.2 mph /  14.8 km/h 13.0 mph /  20.9 km/h 78 % 0.00 in /  0 mm
03:16 60.3 °F /  15.7 °C 52.0 °F /  11.1 °C 30.07 in /  1018.2 hPa ENE 7.1 mph /  11.4 km/h 11.5 mph /  18.5 km/h 74 % 0.00 in /  0 mm
03:21 60.3 °F /  15.7 °C 50.9 °F /  10.5 °C 30.07 in /  1018.2 hPa ENE 8.0 mph /  12.9 km/h 12.7 mph /  20.4 km/h 71 % 0.00 in /  0 mm
03:26 60.4 °F /  15.8 °C 50.6 °F /  10.3 °C 30.07 in /  1018.2 hPa NNE 4.9 mph /  7.9 km/h 11.5 mph /  18.5 km/h 70 % 0.00 in /  0 mm
03:31 60.3 °F /  15.7 °C 50.5 °F /  10.3 °C 30.07 in /  1018.2 hPa NNE 4.1 mph /  6.6 km/h 6.0 mph /  9.7 km/h 70 % 0.00 in /  0 mm
03:36 60.3 °F /  15.7 °C 50.5 °F /  10.3 °C 30.08 in /  1018.5 hPa ENE 4.0 mph /  6.4 km/h 8.1 mph /  13 km/h 70 % 0.00 in /  0 mm
03:41 60.2 °F /  15.7 °C 50.8 °F /  10.4 °C 30.08 in /  1018.5 hPa NE 2.8 mph /  4.5 km/h 11.5 mph /  18.5 km/h 71 % 0.00 in /  0 mm
03:46 60.1 °F /  15.6 °C 51.0 °F /  10.6 °C 30.08 in /  1018.5 hPa NE 2.3 mph /  3.7 km/h 3.5 mph /  5.6 km/h 72 % 0.00 in /  0 mm
03:51 60.0 °F /  15.6 °C 50.9 °F /  10.5 °C 30.08 in /  1018.5 hPa NE 3.2 mph /  5.1 km/h 5.8 mph /  9.3 km/h 72 % 0.00 in /  0 mm
03:56 59.9 °F /  15.5 °C 49.3 °F /  9.6 °C 30.08 in /  1018.5 hPa East 7.2 mph /  11.6 km/h 13.8 mph /  22.2 km/h 68 % 0.00 in /  0 mm
04:01 59.8 °F /  15.4 °C 48.8 °F /  9.3 °C 30.09 in /  1018.8 hPa ENE 8.6 mph /  13.8 km/h 12.7 mph /  20.4 km/h 67 % 0.00 in /  0 mm
04:06 59.8 °F /  15.4 °C 48.8 °F /  9.3 °C 30.10 in /  1019.2 hPa ENE 8.7 mph /  14 km/h 12.7 mph /  20.4 km/h 67 % 0.00 in /  0 mm
04:11 59.8 °F /  15.4 °C 48.8 °F /  9.3 °C 30.10 in /  1019.2 hPa ENE 6.4 mph /  10.3 km/h 10.0 mph /  16.1 km/h 67 % 0.00 in /  0 mm
04:16 59.8 °F /  15.4 °C 48.0 °F /  8.9 °C 30.10 in /  1019.2 hPa ENE 8.7 mph /  14 km/h 11.5 mph /  18.5 km/h 65 % 0.00 in /  0 mm
04:22 59.8 °F /  15.4 °C 48.4 °F /  9.1 °C 30.10 in /  1019.2 hPa East 8.2 mph /  13.2 km/h 12.7 mph /  20.4 km/h 66 % 0.00 in /  0 mm
04:27 59.8 °F /  15.4 °C 48.0 °F /  8.9 °C 30.10 in /  1019.2 hPa ENE 8.2 mph /  13.2 km/h 10.4 mph /  16.7 km/h 65 % 0.00 in /  0 mm
04:32 59.8 °F /  15.4 °C 48.8 °F /  9.3 °C 30.10 in /  1019.2 hPa ESE 5.5 mph /  8.9 km/h 11.5 mph /  18.5 km/h 67 % 0.00 in /  0 mm
04:37 59.7 °F /  15.4 °C 48.7 °F /  9.3 °C 30.11 in /  1019.5 hPa ENE 7.5 mph /  12.1 km/h 11.5 mph /  18.5 km/h 67 % 0.00 in /  0 mm
04:42 59.6 °F /  15.3 °C 48.6 °F /  9.2 °C 30.11 in /  1019.5 hPa ENE 9.1 mph /  14.6 km/h 15.0 mph /  24.1 km/h 67 % 0.00 in /  0 mm
04:47 59.5 °F /  15.3 °C 48.1 °F /  8.9 °C 30.11 in /  1019.5 hPa ENE 6.6 mph /  10.6 km/h 13.8 mph /  22.2 km/h 66 % 0.00 in /  0 mm
04:52 59.5 °F /  15.3 °C 48.5 °F /  9.2 °C 30.11 in /  1019.5 hPa ENE 7.8 mph /  12.6 km/h 13.8 mph /  22.2 km/h 67 % 0.00 in /  0 mm
04:57 59.4 °F /  15.2 °C 48.4 °F /  9.1 °C 30.11 in /  1019.5 hPa ENE 6.9 mph /  11.1 km/h 9.2 mph /  14.8 km/h 67 % 0.00 in /  0 mm
05:02 59.4 °F /  15.2 °C 48.8 °F /  9.3 °C 30.11 in /  1019.5 hPa ENE 7.9 mph /  12.7 km/h 13.8 mph /  22.2 km/h 68 % 0.00 in /  0 mm
05:07 59.3 °F /  15.2 °C 48.7 °F /  9.3 °C 30.11 in /  1019.5 hPa NE 6.3 mph /  10.1 km/h 11.5 mph /  18.5 km/h 68 % 0.00 in /  0 mm
05:12 59.2 °F /  15.1 °C 49.4 °F /  9.7 °C 30.12 in /  1019.9 hPa ENE 5.2 mph /  8.4 km/h 8.1 mph /  13 km/h 70 % 0.00 in /  0 mm
05:17 59.1 °F /  15.1 °C 49.3 °F /  9.6 °C 30.11 in /  1019.5 hPa ENE 5.7 mph /  9.2 km/h 9.2 mph /  14.8 km/h 70 % 0.00 in /  0 mm
05:22 58.9 °F /  14.9 °C 48.7 °F /  9.3 °C 30.12 in /  1019.9 hPa ENE 7.2 mph /  11.6 km/h 11.5 mph /  18.5 km/h 69 % 0.00 in /  0 mm
05:27 58.8 °F /  14.9 °C 48.6 °F /  9.2 °C 30.12 in /  1019.9 hPa NE 5.6 mph /  9 km/h 10.4 mph /  16.7 km/h 69 % 0.00 in /  0 mm
05:32 58.7 °F /  14.8 °C 48.9 °F /  9.4 °C 30.12 in /  1019.9 hPa NE 5.3 mph /  8.5 km/h 9.2 mph /  14.8 km/h 70 % 0.00 in /  0 mm
05:37 58.7 °F /  14.8 °C 48.9 °F /  9.4 °C 30.12 in /  1019.9 hPa ENE 4.6 mph /  7.4 km/h 6.9 mph /  11.1 km/h 70 % 0.00 in /  0 mm
05:42 58.6 °F /  14.8 °C 48.5 °F /  9.2 °C 30.13 in /  1020.2 hPa ENE 3.8 mph /  6.1 km/h 11.5 mph /  18.5 km/h 69 % 0.00 in /  0 mm
05:47 58.6 °F /  14.8 °C 48.8 °F /  9.3 °C 30.14 in /  1020.5 hPa ENE 7.1 mph /  11.4 km/h 11.5 mph /  18.5 km/h 70 % 0.00 in /  0 mm
05:52 58.5 °F /  14.7 °C 49.1 °F /  9.5 °C 30.14 in /  1020.5 hPa East 4.8 mph /  7.7 km/h 13.8 mph /  22.2 km/h 71 % 0.00 in /  0 mm
05:57 58.5 °F /  14.7 °C 49.1 °F /  9.5 °C 30.14 in /  1020.5 hPa NE 4.8 mph /  7.7 km/h 9.2 mph /  14.8 km/h 71 % 0.00 in /  0 mm
06:02 58.5 °F /  14.7 °C 48.7 °F /  9.3 °C 30.14 in /  1020.5 hPa East 4.9 mph /  7.9 km/h 10.4 mph /  16.7 km/h 70 % 0.00 in /  0 mm
06:07 58.6 °F /  14.8 °C 48.5 °F /  9.2 °C 30.14 in /  1020.5 hPa ENE 6.5 mph /  10.5 km/h 8.0 mph /  12.9 km/h 69 % 0.00 in /  0 mm
06:13 58.6 °F /  14.8 °C 48.8 °F /  9.3 °C 30.15 in /  1020.9 hPa ENE 3.2 mph /  5.1 km/h 6.9 mph /  11.1 km/h 70 % 0.00 in /  0 mm
06:18 58.7 °F /  14.8 °C 49.3 °F /  9.6 °C 30.15 in /  1020.9 hPa NE 2.2 mph /  3.5 km/h 3.5 mph /  5.6 km/h 71 % 0.00 in /  0 mm
06:23 58.7 °F /  14.8 °C 49.3 °F /  9.6 °C 30.15 in /  1020.9 hPa ENE 3.0 mph /  4.8 km/h 8.1 mph /  13 km/h 71 % 0.00 in /  0 mm
06:28 58.7 °F /  14.8 °C 48.9 °F /  9.4 °C 30.16 in /  1021.2 hPa ENE 4.1 mph /  6.6 km/h 7.0 mph /  11.3 km/h 70 % 0.00 in /  0 mm
06:33 58.7 °F /  14.8 °C 48.9 °F /  9.4 °C 30.17 in /  1021.6 hPa ENE 3.0 mph /  4.8 km/h 4.6 mph /  7.4 km/h 70 % 0.00 in /  0 mm
06:38 58.8 °F /  14.9 °C 49.4 °F /  9.7 °C 30.17 in /  1021.6 hPa NE 2.6 mph /  4.2 km/h 4.6 mph /  7.4 km/h 71 % 0.00 in /  0 mm
06:43 58.7 °F /  14.8 °C 49.3 °F /  9.6 °C 30.18 in /  1021.9 hPa NE 3.5 mph /  5.6 km/h 5.0 mph /  8 km/h 71 % 0.00 in /  0 mm
06:48 58.6 °F /  14.8 °C 48.8 °F /  9.3 °C 30.19 in /  1022.2 hPa NNE 4.4 mph /  7.1 km/h 8.1 mph /  13 km/h 70 % 0.00 in /  0 mm
06:53 58.5 °F /  14.7 °C 49.1 °F /  9.5 °C 30.19 in /  1022.2 hPa NE 3.2 mph /  5.1 km/h 6.9 mph /  11.1 km/h 71 % 0.00 in /  0 mm
06:58 58.5 °F /  14.7 °C 49.1 °F /  9.5 °C 30.19 in /  1022.2 hPa NNE 3.7 mph /  6 km/h 7.0 mph /  11.3 km/h 71 % 0.00 in /  0 mm
07:03 58.5 °F /  14.7 °C 49.1 °F /  9.5 °C 30.19 in /  1022.2 hPa NNE 2.7 mph /  4.3 km/h 8.1 mph /  13 km/h 71 % 0.00 in /  0 mm
07:08 58.5 °F /  14.7 °C 49.5 °F /  9.7 °C 30.19 in /  1022.2 hPa NNE 2.7 mph /  4.3 km/h 4.6 mph /  7.4 km/h 72 % 0.00 in /  0 mm
07:13 58.5 °F /  14.7 °C 49.5 °F /  9.7 °C 30.18 in /  1021.9 hPa NE 4.5 mph /  7.2 km/h 9.2 mph /  14.8 km/h 72 % 0.00 in /  0 mm
07:18 58.5 °F /  14.7 °C 48.4 °F /  9.1 °C 30.18 in /  1021.9 hPa ENE 5.0 mph /  8 km/h 9.2 mph /  14.8 km/h 69 % 0.00 in /  0 mm
07:23 58.6 °F /  14.8 °C 49.2 °F /  9.6 °C 30.18 in /  1021.9 hPa East 4.4 mph /  7.1 km/h 9.0 mph /  14.5 km/h 71 % 0.00 in /  0 mm
07:24 58.6 °F /  14.8 °C 49.2 °F /  9.6 °C 30.18 in /  1021.9 hPa NE 5.8 mph /  9.3 km/h 9.2 mph /  14.8 km/h 71 % 0.00 in /  0 mm
07:29 58.4 °F /  14.7 °C 49.4 °F /  9.7 °C 30.18 in /  1021.9 hPa NE 6.7 mph /  10.8 km/h 11.5 mph /  18.5 km/h 72 % 0.00 in /  0 mm
07:34 58.2 °F /  14.6 °C 49.6 °F /  9.8 °C 30.18 in /  1021.9 hPa ENE 5.4 mph /  8.7 km/h 11.5 mph /  18.5 km/h 73 % 0.01 in /  0.25 mm
07:39 57.9 °F /  14.4 °C 49.7 °F /  9.8 °C 30.18 in /  1021.9 hPa ENE 5.3 mph /  8.5 km/h 10.4 mph /  16.7 km/h 74 % 0.01 in /  0.25 mm
07:44 57.6 °F /  14.2 °C 50.1 °F /  10.1 °C 30.19 in /  1022.2 hPa NE 5.4 mph /  8.7 km/h 8.1 mph /  13 km/h 76 % 0.01 in /  0.25 mm
07:49 57.4 °F /  14.1 °C 49.5 °F /  9.7 °C 30.19 in /  1022.2 hPa ENE 5.9 mph /  9.5 km/h 10.4 mph /  16.7 km/h 75 % 0.01 in /  0.25 mm
07:54 57.3 °F /  14.1 °C 50.1 °F /  10.1 °C 30.19 in /  1022.2 hPa NE 5.7 mph /  9.2 km/h 9.2 mph /  14.8 km/h 77 % 0.01 in /  0.25 mm
07:59 57.3 °F /  14.1 °C 50.1 °F /  10.1 °C 30.19 in /  1022.2 hPa East 5.8 mph /  9.3 km/h 8.1 mph /  13 km/h 77 % 0.01 in /  0.25 mm
08:04 57.2 °F /  14 °C 49.3 °F /  9.6 °C 30.19 in /  1022.2 hPa ENE 4.9 mph /  7.9 km/h 7.0 mph /  11.3 km/h 75 % 0.01 in /  0.25 mm
08:09 57.2 °F /  14 °C 49.3 °F /  9.6 °C 30.19 in /  1022.2 hPa ENE 5.2 mph /  8.4 km/h 9.2 mph /  14.8 km/h 75 % 0.01 in /  0.25 mm
08:14 57.3 °F /  14.1 °C 49.4 °F /  9.7 °C 30.20 in /  1022.6 hPa ENE 4.6 mph /  7.4 km/h 8.0 mph /  12.9 km/h 75 % 0.01 in /  0.25 mm
08:19 57.5 °F /  14.2 °C 49.6 °F /  9.8 °C 30.20 in /  1022.6 hPa ENE 7.5 mph /  12.1 km/h 10.4 mph /  16.7 km/h 75 % 0.01 in /  0.25 mm
08:24 57.6 °F /  14.2 °C 49.4 °F /  9.7 °C 30.21 in /  1022.9 hPa ENE 7.5 mph /  12.1 km/h 13.0 mph /  20.9 km/h 74 % 0.01 in /  0.25 mm
08:29 57.7 °F /  14.3 °C 49.5 °F /  9.7 °C 30.20 in /  1022.6 hPa ENE 8.4 mph /  13.5 km/h 11.5 mph /  18.5 km/h 74 % 0.01 in /  0.25 mm
08:34 58.0 °F /  14.4 °C 49.8 °F /  9.9 °C 30.21 in /  1022.9 hPa ENE 7.3 mph /  11.7 km/h 10.0 mph /  16.1 km/h 74 % 0.00 in /  0 mm
08:39 58.2 °F /  14.6 °C 49.6 °F /  9.8 °C 30.21 in /  1022.9 hPa ENE 9.6 mph /  15.4 km/h 13.0 mph /  20.9 km/h 73 % 0.00 in /  0 mm
08:44 58.3 °F /  14.6 °C 49.7 °F /  9.8 °C 30.22 in /  1023.2 hPa ENE 7.2 mph /  11.6 km/h 10.4 mph /  16.7 km/h 73 % 0.00 in /  0 mm
08:49 58.5 °F /  14.7 °C 49.9 °F /  9.9 °C 30.21 in /  1022.9 hPa ENE 3.5 mph /  5.6 km/h 9.2 mph /  14.8 km/h 73 % 0.00 in /  0 mm
08:54 58.6 °F /  14.8 °C 50.0 °F /  10 °C 30.21 in /  1022.9 hPa ENE 7.0 mph /  11.3 km/h 9.2 mph /  14.8 km/h 73 % 0.00 in /  0 mm
08:59 58.6 °F /  14.8 °C 49.6 °F /  9.8 °C 30.21 in /  1022.9 hPa ENE 5.0 mph /  8 km/h 8.1 mph /  13 km/h 72 % 0.00 in /  0 mm
09:04 58.7 °F /  14.8 °C 49.3 °F /  9.6 °C 30.21 in /  1022.9 hPa ENE 6.8 mph /  10.9 km/h 11.5 mph /  18.5 km/h 71 % 0.00 in /  0 mm
09:09 58.8 °F /  14.9 °C 49.8 °F /  9.9 °C 30.22 in /  1023.2 hPa ENE 5.8 mph /  9.3 km/h 9.2 mph /  14.8 km/h 72 % 0.00 in /  0 mm
09:14 58.9 °F /  14.9 °C 49.9 °F /  9.9 °C 30.22 in /  1023.2 hPa ENE 4.7 mph /  7.6 km/h 8.0 mph /  12.9 km/h 72 % 0.00 in /  0 mm
09:19 59.1 °F /  15.1 °C 50.1 °F /  10.1 °C 30.23 in /  1023.6 hPa ENE 3.9 mph /  6.3 km/h 6.9 mph /  11.1 km/h 72 % 0.00 in /  0 mm
09:24 59.3 °F /  15.2 °C 49.9 °F /  9.9 °C 30.22 in /  1023.2 hPa ENE 4.7 mph /  7.6 km/h 8.1 mph /  13 km/h 71 % 0.00 in /  0 mm
09:29 59.5 °F /  15.3 °C 50.1 °F /  10.1 °C 30.22 in /  1023.2 hPa ENE 6.7 mph /  10.8 km/h 10.4 mph /  16.7 km/h 71 % 0.00 in /  0 mm
09:34 59.7 °F /  15.4 °C 49.9 °F /  9.9 °C 30.23 in /  1023.6 hPa ENE 6.0 mph /  9.7 km/h 10.4 mph /  16.7 km/h 70 % 0.00 in /  0 mm
09:39 60.0 °F /  15.6 °C 50.2 °F /  10.1 °C 30.24 in /  1023.9 hPa East 6.6 mph /  10.6 km/h 8.1 mph /  13 km/h 70 % 0.00 in /  0 mm
09:44 60.3 °F /  15.7 °C 50.1 °F /  10.1 °C 30.24 in /  1023.9 hPa ENE 6.1 mph /  9.8 km/h 11.5 mph /  18.5 km/h 69 % 0.00 in /  0 mm
09:49 60.5 °F /  15.8 °C 49.9 °F /  9.9 °C 30.24 in /  1023.9 hPa ENE 6.1 mph /  9.8 km/h 10.4 mph /  16.7 km/h 68 % 0.00 in /  0 mm
09:54 60.8 °F /  16 °C 50.2 °F /  10.1 °C 30.24 in /  1023.9 hPa ENE 5.4 mph /  8.7 km/h 10.4 mph /  16.7 km/h 68 % 0.00 in /  0 mm
10:00 61.0 °F /  16.1 °C 49.6 °F /  9.8 °C 30.24 in /  1023.9 hPa NE 7.3 mph /  11.7 km/h 8.1 mph /  13 km/h 66 % 0.00 in /  0 mm
10:05 61.0 °F /  16.1 °C 49.1 °F /  9.5 °C 30.24 in /  1023.9 hPa East 4.9 mph /  7.9 km/h 10.4 mph /  16.7 km/h 65 % 0.00 in /  0 mm
10:10 60.8 °F /  16 °C 49.8 °F /  9.9 °C 30.24 in /  1023.9 hPa ENE 7.4 mph /  11.9 km/h 11.5 mph /  18.5 km/h 67 % 0.00 in /  0 mm
10:15 60.9 °F /  16.1 °C 49.9 °F /  9.9 °C 30.24 in /  1023.9 hPa ENE 5.4 mph /  8.7 km/h 8.1 mph /  13 km/h 67 % 0.00 in /  0 mm
10:20 61.4 °F /  16.3 °C 51.1 °F /  10.6 °C 30.24 in /  1023.9 hPa East 4.0 mph /  6.4 km/h 9.2 mph /  14.8 km/h 69 % 0.00 in /  0 mm
10:25 62.2 °F /  16.8 °C 51.1 °F /  10.6 °C 30.25 in /  1024.3 hPa East 6.9 mph /  11.1 km/h 11.5 mph /  18.5 km/h 67 % 0.00 in /  0 mm
10:30 62.2 °F /  16.8 °C 51.1 °F /  10.6 °C 30.25 in /  1024.3 hPa NE 6.1 mph /  9.8 km/h 11.5 mph /  18.5 km/h 67 % 0.00 in /  0 mm
10:35 62.0 °F /  16.7 °C 50.9 °F /  10.5 °C 30.25 in /  1024.3 hPa ENE 6.2 mph /  10 km/h 11.5 mph /  18.5 km/h 67 % 0.00 in /  0 mm
10:40 61.8 °F /  16.6 °C 50.7 °F /  10.4 °C 30.25 in /  1024.3 hPa ENE 5.0 mph /  8 km/h 8.1 mph /  13 km/h 67 % 0.00 in /  0 mm
10:45 61.6 °F /  16.4 °C 51.3 °F /  10.7 °C 30.25 in /  1024.3 hPa ENE 3.2 mph /  5.1 km/h 4.6 mph /  7.4 km/h 69 % 0.00 in /  0 mm
10:50 61.6 °F /  16.4 °C 50.5 °F /  10.3 °C 30.25 in /  1024.3 hPa ENE 5.6 mph /  9 km/h 9.0 mph /  14.5 km/h 67 % 0.00 in /  0 mm
10:53 61.8 °F /  16.6 °C 51.1 °F /  10.6 °C 30.25 in /  1024.3 hPa ENE 4.7 mph /  7.6 km/h 10.4 mph /  16.7 km/h 68 % 0.00 in /  0 mm
10:58 62.4 °F /  16.9 °C 50.1 °F /  10.1 °C 30.25 in /  1024.3 hPa East 4.7 mph /  7.6 km/h 8.1 mph /  13 km/h 64 % 0.00 in /  0 mm
11:03 62.4 °F /  16.9 °C 49.6 °F /  9.8 °C 30.25 in /  1024.3 hPa ENE 5.4 mph /  8.7 km/h 9.2 mph /  14.8 km/h 63 % 0.00 in /  0 mm
11:08 62.6 °F /  17 °C 49.4 °F /  9.7 °C 30.25 in /  1024.3 hPa ENE 4.5 mph /  7.2 km/h 8.1 mph /  13 km/h 62 % 0.00 in /  0 mm
11:13 62.7 °F /  17.1 °C 49.5 °F /  9.7 °C 30.25 in /  1024.3 hPa ENE 4.4 mph /  7.1 km/h 6.9 mph /  11.1 km/h 62 % 0.00 in /  0 mm
11:18 62.7 °F /  17.1 °C 50.3 °F /  10.2 °C 30.25 in /  1024.3 hPa ENE 2.3 mph /  3.7 km/h 3.5 mph /  5.6 km/h 64 % 0.00 in /  0 mm
11:23 62.4 °F /  16.9 °C 48.3 °F /  9.1 °C 30.25 in /  1024.3 hPa ENE 2.4 mph /  3.9 km/h 6.9 mph /  11.1 km/h 60 % 0.00 in /  0 mm
11:28 62.0 °F /  16.7 °C 48.0 °F /  8.9 °C 30.25 in /  1024.3 hPa ENE 1.9 mph /  3.1 km/h 3.5 mph /  5.6 km/h 60 % 0.00 in /  0 mm
11:33 61.8 °F /  16.6 °C 48.2 °F /  9 °C 30.26 in /  1024.6 hPa ENE 2.7 mph /  4.3 km/h 4.6 mph /  7.4 km/h 61 % 0.00 in /  0 mm
11:38 61.4 °F /  16.3 °C 47.8 °F /  8.8 °C 30.26 in /  1024.6 hPa ENE 1.2 mph /  1.9 km/h 2.3 mph /  3.7 km/h 61 % 0.00 in /  0 mm
11:43 61.3 °F /  16.3 °C 48.2 °F /  9 °C 30.26 in /  1024.6 hPa ENE 1.2 mph /  1.9 km/h 3.5 mph /  5.6 km/h 62 % 0.00 in /  0 mm
11:48 61.4 °F /  16.3 °C 49.1 °F /  9.5 °C 30.25 in /  1024.3 hPa ENE 1.2 mph /  1.9 km/h 3.0 mph /  4.8 km/h 64 % 0.00 in /  0 mm
11:53 61.5 °F /  16.4 °C 48.4 °F /  9.1 °C 30.26 in /  1024.6 hPa ENE 1.5 mph /  2.4 km/h 3.5 mph /  5.6 km/h 62 % 0.00 in /  0 mm
11:58 61.6 °F /  16.4 °C 48.9 °F /  9.4 °C 30.25 in /  1024.3 hPa ENE 1.3 mph /  2.1 km/h 2.3 mph /  3.7 km/h 63 % 0.00 in /  0 mm
12:03 61.8 °F /  16.6 °C 48.2 °F /  9 °C 30.25 in /  1024.3 hPa ENE 1.2 mph /  1.9 km/h 3.5 mph /  5.6 km/h 61 % 0.00 in /  0 mm
12:08 61.9 °F /  16.6 °C 49.2 °F /  9.6 °C 30.25 in /  1024.3 hPa ENE 0.6 mph /  1 km/h 2.3 mph /  3.7 km/h 63 % 0.00 in /  0 mm
12:13 62.0 °F /  16.7 °C 48.8 °F /  9.3 °C 30.25 in /  1024.3 hPa ENE 0.9 mph /  1.4 km/h 2.3 mph /  3.7 km/h 62 % 0.00 in /  0 mm
12:18 62.0 °F /  16.7 °C 48.4 °F /  9.1 °C 30.25 in /  1024.3 hPa ENE 0.5 mph /  0.8 km/h 2.3 mph /  3.7 km/h 61 % 0.00 in /  0 mm
12:23 62.0 °F /  16.7 °C 48.8 °F /  9.3 °C 30.26 in /  1024.6 hPa ENE 1.2 mph /  1.9 km/h 2.3 mph /  3.7 km/h 62 % 0.00 in /  0 mm
12:28 61.9 °F /  16.6 °C 48.3 °F /  9.1 °C 30.26 in /  1024.6 hPa ENE 0.8 mph /  1.3 km/h 3.5 mph /  5.6 km/h 61 % 0.00 in /  0 mm
12:33 61.9 °F /  16.6 °C 49.2 °F /  9.6 °C 30.26 in /  1024.6 hPa ENE 0.6 mph /  1 km/h 1.2 mph /  1.9 km/h 63 % 0.00 in /  0 mm
12:38 61.9 °F /  16.6 °C 48.7 °F /  9.3 °C 30.25 in /  1024.3 hPa ENE 1.6 mph /  2.6 km/h 4.6 mph /  7.4 km/h 62 % 0.00 in /  0 mm
12:43 61.9 °F /  16.6 °C 48.7 °F /  9.3 °C 30.26 in /  1024.6 hPa ENE 1.5 mph /  2.4 km/h 3.5 mph /  5.6 km/h 62 % 0.00 in /  0 mm
12:48 61.8 °F /  16.6 °C 47.8 °F /  8.8 °C 30.26 in /  1024.6 hPa NE 2.6 mph /  4.2 km/h 4.6 mph /  7.4 km/h 60 % 0.00 in /  0 mm
12:53 61.7 °F /  16.5 °C 48.5 °F /  9.2 °C 30.26 in /  1024.6 hPa NE 1.0 mph /  1.6 km/h 3.5 mph /  5.6 km/h 62 % 0.00 in /  0 mm
12:58 61.7 °F /  16.5 °C 47.7 °F /  8.7 °C 30.26 in /  1024.6 hPa ENE 1.3 mph /  2.1 km/h 3.5 mph /  5.6 km/h 60 % 0.00 in /  0 mm
13:03 61.7 °F /  16.5 °C 49.4 °F /  9.7 °C 30.26 in /  1024.6 hPa ENE 0.3 mph /  0.5 km/h 1.0 mph /  1.6 km/h 64 % 0.00 in /  0 mm
13:08 61.7 °F /  16.5 °C 48.5 °F /  9.2 °C 30.26 in /  1024.6 hPa ENE 1.5 mph /  2.4 km/h 3.5 mph /  5.6 km/h 62 % 0.00 in /  0 mm
13:13 61.8 °F /  16.6 °C 49.5 °F /  9.7 °C 30.26 in /  1024.6 hPa ENE 0.1 mph /  0.2 km/h 1.2 mph /  1.9 km/h 64 % 0.00 in /  0 mm
13:18 61.7 °F /  16.5 °C 49.0 °F /  9.4 °C 30.26 in /  1024.6 hPa Calm   1.2 mph /  1.9 km/h 63 % 0.00 in /  0 mm
13:24 61.8 °F /  16.6 °C 49.1 °F /  9.5 °C 30.26 in /  1024.6 hPa NE 0.2 mph /  0.3 km/h 1.0 mph /  1.6 km/h 63 % 0.00 in /  0 mm
13:29 61.9 °F /  16.6 °C 49.2 °F /  9.6 °C 30.26 in /  1024.6 hPa Calm   1.2 mph /  1.9 km/h 63 % 0.00 in /  0 mm
13:34 62.0 °F /  16.7 °C 49.3 °F /  9.6 °C 30.25 in /  1024.3 hPa Calm   1.2 mph /  1.9 km/h 63 % 0.00 in /  0 mm
13:39 62.1 °F /  16.7 °C 48.5 °F /  9.2 °C 30.25 in /  1024.3 hPa Calm   3.5 mph /  5.6 km/h 61 % 0.00 in /  0 mm
13:44 62.3 °F /  16.8 °C 49.1 °F /  9.5 °C 30.26 in /  1024.6 hPa SSE 0.5 mph /  0.8 km/h 4.6 mph /  7.4 km/h 62 % 0.00 in /  0 mm
13:49 62.6 °F /  17 °C 49.8 °F /  9.9 °C 30.26 in /  1024.6 hPa SSE 0.1 mph /  0.2 km/h 1.2 mph /  1.9 km/h 63 % 0.00 in /  0 mm
13:54 62.7 °F /  17.1 °C 47.7 °F /  8.7 °C 30.26 in /  1024.6 hPa SSE 0.5 mph /  0.8 km/h 2.3 mph /  3.7 km/h 58 % 0.00 in /  0 mm
13:59 62.8 °F /  17.1 °C 47.3 °F /  8.5 °C 30.25 in /  1024.3 hPa Calm   1.2 mph /  1.9 km/h 57 % 0.00 in /  0 mm
14:04 63.0 °F /  17.2 °C 48.4 °F /  9.1 °C 30.25 in /  1024.3 hPa SSE 0.3 mph /  0.5 km/h 2.0 mph /  3.2 km/h 59 % 0.00 in /  0 mm
14:09 63.0 °F /  17.2 °C 46.6 °F /  8.1 °C 30.25 in /  1024.3 hPa SSE 0.2 mph /  0.3 km/h 1.2 mph /  1.9 km/h 55 % 0.00 in /  0 mm
14:14 63.0 °F /  17.2 °C 46.6 °F /  8.1 °C 30.26 in /  1024.6 hPa Calm   1.2 mph /  1.9 km/h 55 % 0.00 in /  0 mm
14:19 63.0 °F /  17.2 °C 46.1 °F /  7.8 °C 30.26 in /  1024.6 hPa SE 1.6 mph /  2.6 km/h 4.6 mph /  7.4 km/h 54 % 0.00 in /  0 mm
14:24 63.0 °F /  17.2 °C 46.1 °F /  7.8 °C 30.26 in /  1024.6 hPa SE 0.1 mph /  0.2 km/h 1.2 mph /  1.9 km/h 54 % 0.00 in /  0 mm
14:29 63.1 °F /  17.3 °C 47.1 °F /  8.4 °C 30.25 in /  1024.3 hPa Calm   1.2 mph /  1.9 km/h 56 % 0.00 in /  0 mm
14:34 63.2 °F /  17.3 °C 47.2 °F /  8.4 °C 30.26 in /  1024.6 hPa Calm   1.2 mph /  1.9 km/h 56 % 0.00 in /  0 mm
14:39 63.3 °F /  17.4 °C 46.9 °F /  8.3 °C 30.26 in /  1024.6 hPa Calm   1.2 mph /  1.9 km/h 55 % 0.00 in /  0 mm
14:44 63.4 °F /  17.4 °C 46.9 °F /  8.3 °C 30.26 in /  1024.6 hPa SE 0.7 mph /  1.1 km/h 2.0 mph /  3.2 km/h 55 % 0.00 in /  0 mm
14:49 63.5 °F /  17.5 °C 46.6 °F /  8.1 °C 30.26 in /  1024.6 hPa Calm   2.3 mph /  3.7 km/h 54 % 0.00 in /  0 mm
14:54 63.8 °F /  17.7 °C 47.3 °F /  8.5 °C 30.26 in /  1024.6 hPa SE 2.5 mph /  4 km/h 3.5 mph /  5.6 km/h 55 % 0.00 in /  0 mm
14:59 64.0 °F /  17.8 °C 47.0 °F /  8.3 °C 30.26 in /  1024.6 hPa Calm     54 % 0.00 in /  0 mm
15:04 64.3 °F /  17.9 °C 47.3 °F /  8.5 °C 30.26 in /  1024.6 hPa East 0.4 mph /  0.6 km/h 1.2 mph /  1.9 km/h 54 % 0.00 in /  0 mm
15:09 64.4 °F /  18 °C 47.4 °F /  8.6 °C 30.26 in /  1024.6 hPa ENE 0.8 mph /  1.3 km/h 3.0 mph /  4.8 km/h 54 % 0.00 in /  0 mm
15:14 64.4 °F /  18 °C 48.4 °F /  9.1 °C 30.26 in /  1024.6 hPa Calm   1.0 mph /  1.6 km/h 56 % 0.00 in /  0 mm
15:19 64.5 °F /  18.1 °C 47.5 °F /  8.6 °C 30.26 in /  1024.6 hPa ENE 0.4 mph /  0.6 km/h 2.3 mph /  3.7 km/h 54 % 0.00 in /  0 mm
15:24 64.4 °F /  18 °C 47.4 °F /  8.6 °C 30.26 in /  1024.6 hPa ENE 0.3 mph /  0.5 km/h 1.0 mph /  1.6 km/h 54 % 0.00 in /  0 mm
15:29 64.4 °F /  18 °C 45.9 °F /  7.7 °C 30.25 in /  1024.3 hPa ENE 0.1 mph /  0.2 km/h 1.2 mph /  1.9 km/h 51 % 0.00 in /  0 mm
15:34 64.5 °F /  18.1 °C 48.4 °F /  9.1 °C 30.26 in /  1024.6 hPa Calm     56 % 0.00 in /  0 mm
15:39 64.6 °F /  18.1 °C 45.0 °F /  7.2 °C 30.26 in /  1024.6 hPa Calm     49 % 0.00 in /  0 mm
15:44 64.7 °F /  18.2 °C 45.1 °F /  7.3 °C 30.26 in /  1024.6 hPa Calm     49 % 0.00 in /  0 mm
15:49 64.7 °F /  18.2 °C 45.1 °F /  7.3 °C 30.25 in /  1024.3 hPa ESE 0.1 mph /  0.2 km/h 2.3 mph /  3.7 km/h 49 % 0.00 in /  0 mm
15:54 64.8 °F /  18.2 °C 46.2 °F /  7.9 °C 30.25 in /  1024.3 hPa Calm   1.2 mph /  1.9 km/h 51 % 0.00 in /  0 mm
15:59 64.9 °F /  18.3 °C 45.8 °F /  7.7 °C 30.25 in /  1024.3 hPa Calm     50 % 0.00 in /  0 mm
16:04 65.0 °F /  18.3 °C 42.5 °F /  5.8 °C 30.25 in /  1024.3 hPa ESE 1.4 mph /  2.3 km/h 3.5 mph /  5.6 km/h 44 % 0.00 in /  0 mm
16:09 65.1 °F /  18.4 °C 45.5 °F /  7.5 °C 30.25 in /  1024.3 hPa Calm     49 % 0.00 in /  0 mm
16:14 65.2 °F /  18.4 °C 43.9 °F /  6.6 °C 30.25 in /  1024.3 hPa Calm     46 % 0.00 in /  0 mm
16:19 65.3 °F /  18.5 °C 44.5 °F /  6.9 °C 30.25 in /  1024.3 hPa ESE 0.8 mph /  1.3 km/h 2.3 mph /  3.7 km/h 47 % 0.00 in /  0 mm
16:24 65.4 °F /  18.6 °C 45.7 °F /  7.6 °C 30.25 in /  1024.3 hPa Calm     49 % 0.00 in /  0 mm
16:29 65.3 °F /  18.5 °C 45.6 °F /  7.6 °C 30.25 in /  1024.3 hPa SSE 0.6 mph /  1 km/h 2.3 mph /  3.7 km/h 49 % 0.00 in /  0 mm
16:34 65.3 °F /  18.5 °C 46.7 °F /  8.2 °C 30.25 in /  1024.3 hPa Calm     51 % 0.00 in /  0 mm
16:39 65.3 °F /  18.5 °C 45.6 °F /  7.6 °C 30.25 in /  1024.3 hPa SW 0.1 mph /  0.2 km/h 1.2 mph /  1.9 km/h 49 % 0.00 in /  0 mm
16:44 65.4 °F /  18.6 °C 46.3 °F /  7.9 °C 30.25 in /  1024.3 hPa SW 0.1 mph /  0.2 km/h 1.2 mph /  1.9 km/h 50 % 0.00 in /  0 mm
16:49 65.4 °F /  18.6 °C 47.8 °F /  8.8 °C 30.26 in /  1024.6 hPa Calm   1.2 mph /  1.9 km/h 53 % 0.00 in /  0 mm
16:54 65.5 °F /  18.6 °C 48.4 °F /  9.1 °C 30.25 in /  1024.3 hPa SW 0.8 mph /  1.3 km/h 2.3 mph /  3.7 km/h 54 % 0.00 in /  0 mm
16:59 65.5 °F /  18.6 °C 48.4 °F /  9.1 °C 30.25 in /  1024.3 hPa West 2.5 mph /  4 km/h 3.5 mph /  5.6 km/h 54 % 0.00 in /  0 mm
17:04 65.6 °F /  18.7 °C 47.0 °F /  8.3 °C 30.25 in /  1024.3 hPa West 0.5 mph /  0.8 km/h 2.3 mph /  3.7 km/h 51 % 0.00 in /  0 mm
17:09 65.7 °F /  18.7 °C 48.6 °F /  9.2 °C 30.25 in /  1024.3 hPa West 0.4 mph /  0.6 km/h 3.5 mph /  5.6 km/h 54 % 0.00 in /  0 mm
17:14 65.8 °F /  18.8 °C 48.7 °F /  9.3 °C 30.25 in /  1024.3 hPa West 1.4 mph /  2.3 km/h 4.0 mph /  6.4 km/h 54 % 0.00 in /  0 mm
17:19 65.8 °F /  18.8 °C 48.2 °F /  9 °C 30.25 in /  1024.3 hPa West 0.9 mph /  1.4 km/h 3.5 mph /  5.6 km/h 53 % 0.00 in /  0 mm
17:24 65.8 °F /  18.8 °C 48.2 °F /  9 °C 30.25 in /  1024.3 hPa WNW 1.5 mph /  2.4 km/h 3.5 mph /  5.6 km/h 53 % 0.00 in /  0 mm
17:30 65.8 °F /  18.8 °C 48.2 °F /  9 °C 30.25 in /  1024.3 hPa WNW 0.6 mph /  1 km/h 3.5 mph /  5.6 km/h 53 % 0.00 in /  0 mm
17:35 65.8 °F /  18.8 °C 48.7 °F /  9.3 °C 30.25 in /  1024.3 hPa WNW 1.1 mph /  1.8 km/h 2.3 mph /  3.7 km/h 54 % 0.00 in /  0 mm
17:40 65.8 °F /  18.8 °C 48.7 °F /  9.3 °C 30.25 in /  1024.3 hPa WNW 0.8 mph /  1.3 km/h 3.5 mph /  5.6 km/h 54 % 0.00 in /  0 mm
17:45 65.8 °F /  18.8 °C 48.7 °F /  9.3 °C 30.25 in /  1024.3 hPa WNW 0.5 mph /  0.8 km/h 2.3 mph /  3.7 km/h 54 % 0.00 in /  0 mm
17:50 65.8 °F /  18.8 °C 48.7 °F /  9.3 °C 30.25 in /  1024.3 hPa WNW 0.8 mph /  1.3 km/h 2.3 mph /  3.7 km/h 54 % 0.00 in /  0 mm
17:55 65.8 °F /  18.8 °C 49.2 °F /  9.6 °C 30.25 in /  1024.3 hPa WSW 2.9 mph /  4.7 km/h 4.0 mph /  6.4 km/h 55 % 0.00 in /  0 mm
18:00 65.8 °F /  18.8 °C 47.7 °F /  8.7 °C 30.24 in /  1023.9 hPa Calm     52 % 0.00 in /  0 mm
18:05 65.8 °F /  18.8 °C 48.2 °F /  9 °C 30.24 in /  1023.9 hPa SW 1.7 mph /  2.7 km/h 3.5 mph /  5.6 km/h 53 % 0.00 in /  0 mm
18:10 65.7 °F /  18.7 °C 48.6 °F /  9.2 °C 30.24 in /  1023.9 hPa WNW 2.1 mph /  3.4 km/h 3.5 mph /  5.6 km/h 54 % 0.00 in /  0 mm
18:15 65.6 °F /  18.7 °C 47.5 °F /  8.6 °C 30.24 in /  1023.9 hPa WSW 1.3 mph /  2.1 km/h 3.5 mph /  5.6 km/h 52 % 0.00 in /  0 mm
18:20 65.5 °F /  18.6 °C 48.4 °F /  9.1 °C 30.24 in /  1023.9 hPa WSW 0.7 mph /  1.1 km/h 2.3 mph /  3.7 km/h 54 % 0.00 in /  0 mm
18:25 65.4 °F /  18.6 °C 48.8 °F /  9.3 °C 30.24 in /  1023.9 hPa Calm     55 % 0.00 in /  0 mm
18:30 65.3 °F /  18.5 °C 49.2 °F /  9.6 °C 30.24 in /  1023.9 hPa Calm   1.0 mph /  1.6 km/h 56 % 0.00 in /  0 mm
18:35 65.1 °F /  18.4 °C 49.5 °F /  9.7 °C 30.24 in /  1023.9 hPa WSW 0.2 mph /  0.3 km/h 1.2 mph /  1.9 km/h 57 % 0.00 in /  0 mm
18:40 65.0 °F /  18.3 °C 49.9 °F /  9.9 °C 30.24 in /  1023.9 hPa SW 0.6 mph /  1 km/h 3.0 mph /  4.8 km/h 58 % 0.00 in /  0 mm
18:45 64.6 °F /  18.1 °C 49.0 °F /  9.4 °C 30.24 in /  1023.9 hPa Calm   1.2 mph /  1.9 km/h 57 % 0.00 in /  0 mm
18:50 64.4 °F /  18 °C 49.3 °F /  9.6 °C 30.24 in /  1023.9 hPa SW 1.4 mph /  2.3 km/h 3.5 mph /  5.6 km/h 58 % 0.00 in /  0 mm
18:55 64.2 °F /  17.9 °C 49.1 °F /  9.5 °C 30.25 in /  1024.3 hPa SSE 1.4 mph /  2.3 km/h 3.0 mph /  4.8 km/h 58 % 0.00 in /  0 mm
19:00 63.9 °F /  17.7 °C 48.8 °F /  9.3 °C 30.25 in /  1024.3 hPa SW 0.1 mph /  0.2 km/h 3.5 mph /  5.6 km/h 58 % 0.00 in /  0 mm
19:06 63.6 °F /  17.6 °C 48.1 °F /  8.9 °C 30.25 in /  1024.3 hPa Calm   4.0 mph /  6.4 km/h 57 % 0.00 in /  0 mm
19:11 63.3 °F /  17.4 °C 48.7 °F /  9.3 °C 30.25 in /  1024.3 hPa SSW 0.3 mph /  0.5 km/h 2.3 mph /  3.7 km/h 59 % 0.00 in /  0 mm
19:16 63.1 °F /  17.3 °C 48.5 °F /  9.2 °C 30.25 in /  1024.3 hPa Calm   2.0 mph /  3.2 km/h 59 % 0.00 in /  0 mm
19:21 62.9 °F /  17.2 °C 48.8 °F /  9.3 °C 30.25 in /  1024.3 hPa SSW 1.0 mph /  1.6 km/h 4.0 mph /  6.4 km/h 60 % 0.00 in /  0 mm
19:26 62.5 °F /  16.9 °C 48.5 °F /  9.2 °C 30.25 in /  1024.3 hPa SW 1.0 mph /  1.6 km/h 4.0 mph /  6.4 km/h 60 % 0.00 in /  0 mm
19:31 62.2 °F /  16.8 °C 48.2 °F /  9 °C 30.25 in /  1024.3 hPa Calm   3.0 mph /  4.8 km/h 60 % 0.00 in /  0 mm
19:36 61.9 °F /  16.6 °C 47.9 °F /  8.8 °C 30.25 in /  1024.3 hPa Calm   4.0 mph /  6.4 km/h 60 % 0.00 in /  0 mm
19:41 61.6 °F /  16.4 °C 48.0 °F /  8.9 °C 30.25 in /  1024.3 hPa Calm   2.0 mph /  3.2 km/h 61 % 0.00 in /  0 mm
19:46 61.3 °F /  16.3 °C 47.7 °F /  8.7 °C 30.25 in /  1024.3 hPa Calm   3.0 mph /  4.8 km/h 61 % 0.00 in /  0 mm
19:51 61.0 °F /  16.1 °C 47.9 °F /  8.8 °C 30.25 in /  1024.3 hPa Calm   1.0 mph /  1.6 km/h 62 % 0.00 in /  0 mm
19:56 60.6 °F /  15.9 °C 48.0 °F /  8.9 °C 30.25 in /  1024.3 hPa Calm   5.0 mph /  8 km/h 63 % 0.00 in /  0 mm
20:01 60.3 °F /  15.7 °C 47.6 °F /  8.7 °C 30.25 in /  1024.3 hPa Calm   1.2 mph /  1.9 km/h 63 % 0.00 in /  0 mm
20:06 59.9 °F /  15.5 °C 47.3 °F /  8.5 °C 30.25 in /  1024.3 hPa WSW 0.2 mph /  0.3 km/h 1.2 mph /  1.9 km/h 63 % 0.00 in /  0 mm
20:11 59.6 °F /  15.3 °C 47.4 °F /  8.6 °C 30.26 in /  1024.6 hPa Calm   1.2 mph /  1.9 km/h 64 % 0.00 in /  0 mm
20:16 59.3 °F /  15.2 °C 47.5 °F /  8.6 °C 30.26 in /  1024.6 hPa Calm   1.2 mph /  1.9 km/h 65 % 0.00 in /  0 mm
20:21 58.9 °F /  14.9 °C 47.2 °F /  8.4 °C 30.26 in /  1024.6 hPa Calm     65 % 0.00 in /  0 mm
20:26 58.6 °F /  14.8 °C 47.3 °F /  8.5 °C 30.26 in /  1024.6 hPa Calm   2.3 mph /  3.7 km/h 66 % 0.00 in /  0 mm
20:31 58.2 °F /  14.6 °C 46.9 °F /  8.3 °C 30.26 in /  1024.6 hPa Calm   1.2 mph /  1.9 km/h 66 % 0.00 in /  0 mm
20:36 57.9 °F /  14.4 °C 47.0 °F /  8.3 °C 30.26 in /  1024.6 hPa SW 0.6 mph /  1 km/h 2.3 mph /  3.7 km/h 67 % 0.00 in /  0 mm
20:41 57.6 °F /  14.2 °C 46.7 °F /  8.2 °C 30.26 in /  1024.6 hPa SW 0.5 mph /  0.8 km/h 2.3 mph /  3.7 km/h 67 % 0.00 in /  0 mm
20:46 57.3 °F /  14.1 °C 46.8 °F /  8.2 °C 30.26 in /  1024.6 hPa SW 0.1 mph /  0.2 km/h 1.2 mph /  1.9 km/h 68 % 0.00 in /  0 mm
20:51 57.0 °F /  13.9 °C 46.5 °F /  8.1 °C 30.26 in /  1024.6 hPa SW 0.3 mph /  0.5 km/h 1.2 mph /  1.9 km/h 68 % 0.00 in /  0 mm
20:56 56.8 °F /  13.8 °C 46.3 °F /  7.9 °C 30.27 in /  1024.9 hPa SW 0.3 mph /  0.5 km/h 2.3 mph /  3.7 km/h 68 % 0.00 in /  0 mm
21:01 56.5 °F /  13.6 °C 46.4 °F /  8 °C 30.27 in /  1024.9 hPa SW 0.1 mph /  0.2 km/h   69 % 0.00 in /  0 mm
21:06 56.4 °F /  13.6 °C 46.4 °F /  8 °C 30.27 in /  1024.9 hPa SW 0.1 mph /  0.2 km/h 1.2 mph /  1.9 km/h 69 % 0.00 in /  0 mm
21:12 56.2 °F /  13.4 °C 46.2 °F /  7.9 °C 30.27 in /  1024.9 hPa SW 0.3 mph /  0.5 km/h 2.3 mph /  3.7 km/h 69 % 0.00 in /  0 mm
21:17 55.9 °F /  13.3 °C 46.3 °F /  7.9 °C 30.27 in /  1024.9 hPa Calm   3.5 mph /  5.6 km/h 70 % 0.00 in /  0 mm
21:22 55.8 °F /  13.2 °C 46.2 °F /  7.9 °C 30.27 in /  1024.9 hPa Calm   1.2 mph /  1.9 km/h 70 % 0.00 in /  0 mm
21:27 55.7 °F /  13.2 °C 46.1 °F /  7.8 °C 30.27 in /  1024.9 hPa SSW 0.2 mph /  0.3 km/h 1.2 mph /  1.9 km/h 70 % 0.00 in /  0 mm
21:32 55.4 °F /  13 °C 46.2 °F /  7.9 °C 30.27 in /  1024.9 hPa SE 0.1 mph /  0.2 km/h 1.2 mph /  1.9 km/h 71 % 0.00 in /  0 mm
21:37 55.3 °F /  12.9 °C 46.1 °F /  7.8 °C 30.27 in /  1024.9 hPa Calm   1.2 mph /  1.9 km/h 71 % 0.00 in /  0 mm
21:42 55.1 °F /  12.8 °C 45.9 °F /  7.7 °C 30.28 in /  1025.3 hPa Calm     71 % 0.00 in /  0 mm
21:47 54.9 °F /  12.7 °C 46.0 °F /  7.8 °C 30.28 in /  1025.3 hPa Calm     72 % 0.00 in /  0 mm
21:52 54.8 °F /  12.7 °C 45.9 °F /  7.7 °C 30.28 in /  1025.3 hPa Calm   1.2 mph /  1.9 km/h 72 % 0.00 in /  0 mm
21:57 54.6 °F /  12.6 °C 46.1 °F /  7.8 °C 30.28 in /  1025.3 hPa ESE 0.3 mph /  0.5 km/h 1.2 mph /  1.9 km/h 73 % 0.00 in /  0 mm
22:02 54.5 °F /  12.5 °C 46.0 °F /  7.8 °C 30.28 in /  1025.3 hPa SE 0.2 mph /  0.3 km/h 1.2 mph /  1.9 km/h 73 % 0.00 in /  0 mm
22:07 54.4 °F /  12.4 °C 45.9 °F /  7.7 °C 30.28 in /  1025.3 hPa SE 0.3 mph /  0.5 km/h 4.6 mph /  7.4 km/h 73 % 0.00 in /  0 mm
22:12 54.2 °F /  12.3 °C 45.7 °F /  7.6 °C 30.28 in /  1025.3 hPa SE 0.2 mph /  0.3 km/h 1.2 mph /  1.9 km/h 73 % 0.00 in /  0 mm
22:17 54.1 °F /  12.3 °C 46.0 °F /  7.8 °C 30.28 in /  1025.3 hPa SE 0.4 mph /  0.6 km/h 1.2 mph /  1.9 km/h 74 % 0.00 in /  0 mm
22:22 54.1 °F /  12.3 °C 46.0 °F /  7.8 °C 30.28 in /  1025.3 hPa Calm   1.2 mph /  1.9 km/h 74 % 0.00 in /  0 mm
22:27 54.0 °F /  12.2 °C 46.3 °F /  7.9 °C 30.28 in /  1025.3 hPa SE 0.2 mph /  0.3 km/h 1.2 mph /  1.9 km/h 75 % 0.00 in /  0 mm
22:32 53.9 °F /  12.2 °C 46.2 °F /  7.9 °C 30.28 in /  1025.3 hPa Calm     75 % 0.00 in /  0 mm
22:37 53.8 °F /  12.1 °C 46.4 °F /  8 °C 30.28 in /  1025.3 hPa SSE 0.1 mph /  0.2 km/h 5.8 mph /  9.3 km/h 76 % 0.00 in /  0 mm
22:42 53.7 °F /  12.1 °C 46.3 °F /  7.9 °C 30.28 in /  1025.3 hPa Calm     76 % 0.00 in /  0 mm
22:47 53.6 °F /  12 °C 46.2 °F /  7.9 °C 30.28 in /  1025.3 hPa SSE 0.2 mph /  0.3 km/h 2.3 mph /  3.7 km/h 76 % 0.00 in /  0 mm
22:52 53.5 °F /  11.9 °C 46.1 °F /  7.8 °C 30.28 in /  1025.3 hPa Calm     76 % 0.00 in /  0 mm
22:57 53.5 °F /  11.9 °C 46.1 °F /  7.8 °C 30.29 in /  1025.6 hPa SSW 0.1 mph /  0.2 km/h   76 % 0.00 in /  0 mm
23:02 53.4 °F /  11.9 °C 46.0 °F /  7.8 °C 30.29 in /  1025.6 hPa West 0.2 mph /  0.3 km/h 2.3 mph /  3.7 km/h 76 % 0.00 in /  0 mm
23:07 53.3 °F /  11.8 °C 45.9 °F /  7.7 °C 30.29 in /  1025.6 hPa West 0.5 mph /  0.8 km/h 2.3 mph /  3.7 km/h 76 % 0.00 in /  0 mm
23:12 53.2 °F /  11.8 °C 45.8 °F /  7.7 °C 30.30 in /  1026 hPa West 0.2 mph /  0.3 km/h 2.0 mph /  3.2 km/h 76 % 0.00 in /  0 mm
23:17 53.1 °F /  11.7 °C 46.1 °F /  7.8 °C 30.29 in /  1025.6 hPa West 0.6 mph /  1 km/h 3.5 mph /  5.6 km/h 77 % 0.00 in /  0 mm
23:22 52.9 °F /  11.6 °C 45.9 °F /  7.7 °C 30.30 in /  1026 hPa Calm     77 % 0.00 in /  0 mm
23:28 52.8 °F /  11.6 °C 45.8 °F /  7.7 °C 30.30 in /  1026 hPa West 1.1 mph /  1.8 km/h 1.2 mph /  1.9 km/h 77 % 0.00 in /  0 mm
23:33 52.7 °F /  11.5 °C 46.0 °F /  7.8 °C 30.30 in /  1026 hPa West 1.0 mph /  1.6 km/h 2.3 mph /  3.7 km/h 78 % 0.00 in /  0 mm
23:38 52.6 °F /  11.4 °C 45.9 °F /  7.7 °C 30.31 in /  1026.3 hPa West 0.2 mph /  0.3 km/h 1.2 mph /  1.9 km/h 78 % 0.00 in /  0 mm
23:43 52.5 °F /  11.4 °C 46.2 °F /  7.9 °C 30.31 in /  1026.3 hPa West 1.3 mph /  2.1 km/h 2.3 mph /  3.7 km/h 79 % 0.00 in /  0 mm
23:48 52.3 °F /  11.3 °C 46.0 °F /  7.8 °C 30.31 in /  1026.3 hPa West 0.1 mph /  0.2 km/h 1.2 mph /  1.9 km/h 79 % 0.00 in /  0 mm
23:53 52.3 °F /  11.3 °C 46.0 °F /  7.8 °C 30.30 in /  1026 hPa West 0.4 mph /  0.6 km/h   79 % 0.00 in /  0 mm
23:58 52.1 °F /  11.2 °C 45.8 °F /  7.7 °C 30.31 in /  1026.3 hPa Calm     79 % 0.00 in /  0 mm
Crab Meadow Weather
Compliments of Weather Underground - 3 mb

Script developed by  Jim McMurry - jmcmurry@mwt.net Adapted for the template by  Wim van der Kuil - Leuven-Template.eu

Heat Index: The heat index combines air temperature and dew point in an attempt to determine the human-perceived equivalent temperature - how hot it feels. The human body normally cools itself by sweating, which evaporates and carries heat away from the body. However, when the relative humidity is high the evaporation rate is reduced, so heat is removed from the body at a lower rate causing it to retain more heat than it would in dry air.